Kohju — H3XI — position and weather

sailwx.info

Track history (hours):
 
Tides and Currents Weather Stations Pressure Air Temp Water Temp Dewpoint Dewpoint Depression Visibility Wind Speed Wind Dir Waves Ship Positions

Kohju

Last reported at 2016-Nov-25 23:33 UTC. Time now 2016-Dec-05 04:30 UTC.
Position N 10°34' W 016°34'.
Warning: this ship's position is 9 days out of date.

Length 289 m; draft 11.1 m.

Type: Cargo ship. MMSI: 357349000.

Date/timePositionNaut miles runAvg speedWind from/ knotsBaromVisibWave heightAir tempDewpointWater temp
2016-Nov-25 23:33N 10°34' W 016°34'1413.4
2016-Nov-25 22:31N 10°28' W 016°21'1313.3
2016-Nov-25 21:33N 10°22' W 016°09'83 8.0
2016-Nov-25 11:07N 10°29' W 014°45'  
2016-Nov-20 08:06N 09°60' W 014°53'712.9
2016-Nov-20 07:33N 09°53' W 014°55'1712.8
2016-Nov-20 06:13N 09°36' W 014°60'1012.4
2016-Nov-20 05:26N 09°27' W 014°57'4812.5
2016-Nov-20 01:34N 08°42' W 014°39'2713.6
2016-Nov-19 23:34N 08°17' W 014°29'  
Track history (hours):
 
Tides and Currents Weather Stations Pressure Air Temp Water Temp Dewpoint Dewpoint Depression Visibility Wind Speed Wind Dir Waves Ship Positions

Kohju

Last reported at 2016-Nov-25 23:33 UTC. Time now 2016-Dec-05 04:30 UTC.
Position N 10°34' W 016°34'.
Warning: this ship's position is 9 days out of date.

Length 289 m; draft 11.1 m.

Type: Cargo ship. MMSI: 357349000.

Date/timePositionNaut miles runAvg speedWind from/ knotsBaromVisibWave heightAir tempDewpointWater temp
2016-Nov-25 23:33N 10°34' W 016°34'1413.4
2016-Nov-25 22:31N 10°28' W 016°21'1313.3
2016-Nov-25 21:33N 10°22' W 016°09'83 8.0
2016-Nov-25 11:07N 10°29' W 014°45'  
2016-Nov-20 08:06N 09°60' W 014°53'712.9
2016-Nov-20 07:33N 09°53' W 014°55'1712.8
2016-Nov-20 06:13N 09°36' W 014°60'1012.4
2016-Nov-20 05:26N 09°27' W 014°57'4812.5
2016-Nov-20 01:34N 08°42' W 014°39'2713.6
2016-Nov-19 23:34N 08°17' W 014°29'  

Dump ship's entire track history